Time;durP1;ratioP1;P1;durP2;ratioP2;P2;SDS_P1;SDS_P2;PMS_P1;PMS_P2;Temp;Humidity;BMP_temperature;BMP_pressure;BME280_temperature;BME280_humidity;BME280_pressure;Samples;Min_cycle;Max_cycle;Signal;HPM_P1;HPM_P2
2022/06/21 00:01:22;;;;;;;2.80;2.60;;;;;;;19.93;70.90;100340.72;5038121;28;104166;-48
2022/06/21 00:03:51;;;;;;;2.95;2.75;;;;;;;19.92;70.92;100339.94;5034524;28;102374;-48
2022/06/21 00:06:21;;;;;;;2.97;2.78;;;;;;;19.92;71.02;100342.69;5017759;28;102376;-48
2022/06/21 00:08:51;;;;;;;3.60;2.97;;;;;;;19.93;70.85;100344.28;5028963;28;102380;-48
2022/06/21 00:11:22;;;;;;;2.60;2.40;;;;;;;19.91;71.05;100343.84;5037935;28;103955;-48
2022/06/21 00:13:48;;;;;;;3.03;2.55;;;;;;;19.91;71.34;100335.56;5037829;28;102338;-49
2022/06/21 00:16:17;;;;;;;3.27;2.97;;;;;;;19.91;71.12;100338.31;5038054;28;102138;-49
2022/06/21 00:18:45;;;;;;;3.20;2.97;;;;;;;19.92;71.23;100341.88;5029538;28;103413;-49
2022/06/21 00:21:17;;;;;;;3.10;2.90;;;;;;;19.91;71.33;100343.03;5018726;28;105498;-49
2022/06/21 00:23:43;;;;;;;3.15;2.95;;;;;;;19.90;71.16;100350.50;5037423;28;102654;-48
2022/06/21 00:26:12;;;;;;;2.90;2.47;;;;;;;19.91;71.51;100341.09;5038181;28;102143;-47
2022/06/21 00:28:40;;;;;;;3.20;3.00;;;;;;;19.91;71.12;100337.53;5029935;28;102158;-48
2022/06/21 00:31:14;;;;;;;2.85;2.65;;;;;;;19.91;71.43;100341.09;5022154;28;103504;-48
2022/06/21 00:33:41;;;;;;;3.20;3.00;;;;;;;19.90;71.27;100344.19;5017888;28;102001;-49
2022/06/21 00:36:18;;;;;;;2.80;2.60;;;;;;;19.90;71.21;100339.47;5017847;28;101983;-48
2022/06/21 00:38:45;;;;;;;3.78;2.80;;;;;;;19.91;71.05;100338.31;5018538;28;102058;-48
2022/06/21 00:41:17;;;;;;;2.97;2.63;;;;;;;19.91;70.92;100335.56;5027711;28;103943;-48
2022/06/21 00:43:51;;;;;;;2.92;2.72;;;;;;;19.92;70.80;100339.94;5037197;27;101931;-49
2022/06/21 00:46:27;;;;;;;3.03;2.83;;;;;;;19.91;70.72;100338.31;5037595;28;101865;-48
2022/06/21 00:48:54;;;;;;;2.92;2.65;;;;;;;19.91;70.80;100332.81;5037609;28;102181;-48
2022/06/21 00:51:26;;;;;;;3.20;3.00;;;;;;;19.91;70.82;100330.03;5036088;28;103852;-48
2022/06/21 00:53:57;;;;;;;3.85;2.58;;;;;;;19.90;70.31;100328.41;5037721;28;102114;-48
2022/06/21 00:56:29;;;;;;;2.72;2.50;;;;;;;19.92;70.49;100328.09;5036996;28;102136;-48
2022/06/21 00:58:56;;;;;;;2.80;2.60;;;;;;;19.91;70.60;100319.00;5027458;28;102384;-49
2022/06/21 01:01:25;;;;;;;2.80;2.60;;;;;;;19.91;70.68;100323.72;5032558;28;103836;-48
2022/06/21 01:03:56;;;;;;;2.70;2.50;;;;;;;19.91;70.35;100324.53;5037474;28;102465;-48
2022/06/21 01:06:31;;;;;;;2.85;2.65;;;;;;;19.90;70.44;100320.13;5036969;28;102178;-49
2022/06/21 01:09:01;;;;;;;2.83;2.63;;;;;;;19.91;70.69;100307.94;5038386;28;102391;-48
2022/06/21 01:11:32;;;;;;;2.83;2.63;;;;;;;19.90;70.65;100317.38;5019582;28;103861;-49
2022/06/21 01:14:00;;;;;;;2.97;2.78;;;;;;;19.91;70.48;100310.72;5017950;28;102316;-48
2022/06/21 01:16:30;;;;;;;2.70;2.50;;;;;;;19.90;70.46;100305.50;5022732;28;102034;-47
2022/06/21 01:18:56;;;;;;;2.80;2.60;;;;;;;19.91;70.47;100302.44;5017882;28;102128;-49
2022/06/21 01:21:25;;;;;;;2.78;2.58;;;;;;;19.91;70.15;100312.66;5023144;28;103726;-48
2022/06/21 01:23:57;;;;;;;;;;;;;;;19.91;70.38;100301.63;5022047;28;102167;-49
2022/06/21 01:26:48;;;;;;;4.43;2.67;;;;;;;19.89;70.53;100296.44;5021240;28;102496;-46
2022/06/21 01:29:17;;;;;;;2.60;2.40;;;;;;;19.90;70.54;100289.75;5014251;28;102186;-47
2022/06/21 01:31:46;;;;;;;3.35;3.05;;;;;;;19.91;70.67;100290.56;5015995;28;103917;-46
2022/06/21 01:34:15;;;;;;;2.88;2.55;;;;;;;19.90;70.44;100294.47;5019415;28;102183;-47
2022/06/21 01:36:44;;;;;;;2.80;2.60;;;;;;;19.91;70.50;100290.56;5027931;28;102940;-46
2022/06/21 01:39:17;;;;;;;2.70;2.50;;;;;;;19.90;70.35;100289.75;5017853;28;103724;-47
2022/06/21 01:41:51;;;;;;;3.35;2.58;;;;;;;19.90;70.29;100288.94;5015635;28;107877;-47
2022/06/21 01:44:21;;;;;;;2.55;2.40;;;;;;;19.91;70.62;100299.66;5016478;28;102422;-47
2022/06/21 01:46:48;;;;;;;3.30;3.00;;;;;;;19.90;70.61;100284.22;5015985;28;102165;-47
2022/06/21 01:49:21;;;;;;;3.08;2.83;;;;;;;19.90;70.56;100288.94;5017220;28;102273;-48
2022/06/21 01:51:51;;;;;;;2.60;2.40;;;;;;;19.91;70.53;100279.53;5015974;28;104052;-45
2022/06/21 01:54:22;;;;;;;2.85;2.60;;;;;;;19.90;70.80;100280.66;5016315;28;102376;-47
2022/06/21 01:56:52;;;;;;;2.72;2.50;;;;;;;19.89;70.34;100282.63;5014995;28;102573;-47
2022/06/21 01:59:23;;;;;;;2.80;2.50;;;;;;;19.90;70.49;100284.22;5016050;28;102237;-47
2022/06/21 02:01:55;;;;;;;2.53;2.33;;;;;;;19.90;70.40;100284.22;5034614;28;104107;-46
2022/06/21 02:04:24;;;;;;;3.85;2.70;;;;;;;19.89;70.28;100288.13;5032199;28;102438;-46
2022/06/21 02:06:53;;;;;;;2.92;2.50;;;;;;;19.89;70.79;100285.38;5016171;28;101972;-46
2022/06/21 02:09:22;;;;;;;;;;;;;;;19.89;70.64;100284.56;5017117;28;102527;-47
2022/06/21 02:11:56;;;;;;;2.78;2.58;;;;;;;19.89;70.28;100285.38;5015295;28;103873;-47
2022/06/21 02:14:28;;;;;;;2.65;2.45;;;;;;;19.90;70.50;100281.47;5015918;28;102365;-46
2022/06/21 02:17:04;;;;;;;2.67;2.45;;;;;;;19.90;70.32;100284.22;5015624;28;102265;-47
2022/06/21 02:19:38;;;;;;;3.17;2.72;;;;;;;19.90;70.14;100295.28;5031066;28;102084;-46
2022/06/21 02:22:05;;;;;;;3.10;2.78;;;;;;;19.89;70.62;100299.19;5026440;28;103897;-46
2022/06/21 02:24:32;;;;;;;2.55;2.35;;;;;;;19.89;70.34;100296.44;5015996;28;101994;-46
2022/06/21 02:27:02;;;;;;;2.72;2.53;;;;;;;19.89;70.59;100301.94;5033498;28;102273;-49
2022/06/21 02:29:30;;;;;;;2.50;2.30;;;;;;;19.89;70.41;100301.94;5036426;28;102619;-47
2022/06/21 02:31:57;;;;;;;2.72;2.53;;;;;;;19.90;70.31;100300.00;5035205;28;103867;-49
2022/06/21 02:34:34;;;;;;;3.22;2.70;;;;;;;19.89;70.30;100299.19;5018991;28;102611;-49
2022/06/21 02:37:02;;;;;;;3.03;2.75;;;;;;;19.89;70.35;100304.72;5015047;28;102112;-49
2022/06/21 02:39:32;;;;;;;2.95;2.72;;;;;;;19.90;70.17;100311.84;5016554;28;102190;-47
2022/06/21 02:42:05;;;;;;;2.72;2.53;;;;;;;19.89;70.42;100304.72;5014876;28;103968;-46
2022/06/21 02:44:38;;;;;;;2.60;2.40;;;;;;;19.89;70.80;100299.19;5015575;28;103119;-48
2022/06/21 02:47:09;;;;;;;2.97;2.45;;;;;;;19.89;70.58;100288.13;5015267;28;102096;-46
2022/06/21 02:49:40;;;;;;;2.60;2.40;;;;;;;19.89;70.76;100301.94;5015875;28;102390;-46
2022/06/21 02:52:11;;;;;;;2.92;2.45;;;;;;;19.90;70.76;100289.75;5023915;28;104032;-47
2022/06/21 02:54:45;;;;;;;2.42;2.33;;;;;;;19.90;70.88;100295.28;5030334;28;102507;-47
2022/06/21 02:57:22;;;;;;;2.20;2.00;;;;;;;19.89;70.94;100295.63;5015299;28;102594;-47
2022/06/21 02:59:51;;;;;;;3.67;2.10;;;;;;;19.89;70.79;100282.63;5016393;28;102081;-47
2022/06/21 03:02:20;;;;;;;;;;;;;;;19.89;70.92;100288.13;5015285;28;103896;-47
2022/06/21 03:04:51;;;;;;;2.40;2.13;;;;;;;19.89;71.04;100282.63;5021895;28;102397;-45
2022/06/21 03:07:22;;;;;;;2.40;2.30;;;;;;;19.90;71.01;100275.13;5034372;28;102002;-47
2022/06/21 03:09:51;;;;;;;2.60;2.40;;;;;;;19.89;70.96;100277.09;5035571;28;102280;-47
2022/06/21 03:12:22;;;;;;;2.60;2.40;;;;;;;19.90;70.75;100278.69;5033562;28;103858;-46
2022/06/21 03:14:51;;;;;;;2.70;2.50;;;;;;;19.90;71.18;100275.94;5034854;28;102498;-46
2022/06/21 03:17:23;;;;;;;2.38;2.28;;;;;;;19.91;70.91;100280.34;5034559;28;102015;-46
2022/06/21 03:19:51;;;;;;;2.55;2.35;;;;;;;19.91;71.00;100274.00;5018677;28;102401;-45
2022/06/21 03:22:22;;;;;;;2.58;2.20;;;;;;;19.91;70.53;100272.03;5025759;28;104047;-45
2022/06/21 03:24:52;;;;;;;2.50;2.30;;;;;;;19.93;70.59;100272.50;5019253;28;102410;-45
2022/06/21 03:27:27;;;;;;;2.40;2.20;;;;;;;19.93;70.37;100269.72;5029873;28;102555;-46
2022/06/21 03:29:54;;;;;;;2.53;2.33;;;;;;;19.94;70.67;100267.75;5015353;28;102016;-46
2022/06/21 03:32:22;;;;;;;2.22;2.13;;;;;;;19.96;70.72;100267.44;5014739;28;103917;-47
2022/06/21 03:34:50;;;;;;;2.50;2.30;;;;;;;19.97;70.59;100272.59;5014887;28;102439;-47
2022/06/21 03:37:17;;;;;;;2.67;2.47;;;;;;;19.98;71.00;100284.44;5014530;28;102065;-47
2022/06/21 03:42:36;;;;;;;3.42;2.38;;;;;;;19.96;71.08;100275.72;5013768;28;107794;-48
2022/06/21 03:45:10;;;;;;;2.72;2.50;;;;;;;19.96;70.79;100267.44;5019631;28;102479;-47
2022/06/21 03:47:43;;;;;;;4.60;2.47;;;;;;;19.96;71.15;100265.47;5031642;28;102198;-47
2022/06/21 03:50:16;;;;;;;2.45;2.25;;;;;;;19.96;71.13;100267.44;5015409;28;102167;-47
2022/06/21 03:52:47;;;;;;;2.25;2.15;;;;;;;19.96;70.97;100268.25;5014469;28;104091;-47
2022/06/21 03:55:24;;;;;;;3.28;2.30;;;;;;;19.97;71.12;100274.56;5015500;28;102350;-47
2022/06/21 03:57:58;;;;;;;2.40;2.17;;;;;;;19.96;71.39;100265.47;5014311;28;102198;-47
2022/06/21 04:00:31;;;;;;;2.83;2.63;;;;;;;19.97;71.25;100266.28;5015143;28;101969;-47
2022/06/21 04:03:04;;;;;;;2.60;2.10;;;;;;;19.96;71.33;100265.47;5013985;28;103820;-49
2022/06/21 04:05:38;;;;;;;4.93;2.20;;;;;;;19.97;71.39;100249.72;5020145;28;102176;-47
2022/06/21 04:08:13;;;;;;;2.50;2.30;;;;;;;19.97;71.34;100241.44;5017070;28;102380;-47
2022/06/21 04:10:44;;;;;;;2.22;2.13;;;;;;;19.97;71.29;100244.19;5022790;28;102496;-48
2022/06/21 04:13:22;;;;;;;2.55;2.35;;;;;;;19.98;71.16;100235.56;5034331;28;104292;-47
2022/06/21 04:15:55;;;;;;;2.25;2.05;;;;;;;19.99;71.35;100226.13;5021282;28;102338;-47
2022/06/21 04:18:26;;;;;;;2.33;2.08;;;;;;;19.98;71.21;100227.28;5014147;28;101969;-47
2022/06/21 04:21:03;;;;;;;2.28;2.08;;;;;;;20.01;71.18;100223.00;5017919;28;102158;-47
2022/06/21 04:23:38;;;;;;;2.70;2.50;;;;;;;20.01;71.15;100223.81;5016911;28;104001;-47
2022/06/21 04:26:09;;;;;;;2.40;2.20;;;;;;;20.02;71.29;100224.63;5015937;28;102257;-46
2022/06/21 04:28:43;;;;;;;2.63;2.42;;;;;;;20.03;71.19;100220.72;5032578;28;102273;-47
2022/06/21 04:31:15;;;;;;;3.08;2.10;;;;;;;20.03;71.47;100220.72;5031409;28;102585;-48
2022/06/21 04:33:46;;;;;;;2.30;2.10;;;;;;;20.05;71.33;100229.44;5037884;28;104137;-47
2022/06/21 04:36:20;;;;;;;2.33;2.10;;;;;;;20.06;71.16;100226.34;5036538;28;102153;-47
2022/06/21 04:38:54;;;;;;;2.20;2.00;;;;;;;20.07;71.37;100232.66;5037972;28;102220;-47
2022/06/21 04:41:26;;;;;;;2.15;1.95;;;;;;;20.08;71.44;100231.50;5038409;28;102168;-47
2022/06/21 04:43:59;;;;;;;2.40;2.20;;;;;;;20.08;71.37;100229.56;5031572;28;103933;-48
2022/06/21 04:46:34;;;;;;;2.97;2.20;;;;;;;20.09;71.49;100241.44;5037113;28;102401;-47
2022/06/21 04:49:08;;;;;;;2.20;2.10;;;;;;;20.09;71.17;100235.91;5037843;28;102096;-47
2022/06/21 04:51:39;;;;;;;2.65;2.15;;;;;;;20.08;71.32;100239.81;5038926;28;102116;-47
2022/06/21 04:54:12;;;;;;;2.20;2.00;;;;;;;20.09;71.46;100222.91;5036966;28;104009;-46
2022/06/21 04:56:47;;;;;;;2.38;2.17;;;;;;;20.08;71.38;100217.69;5031100;28;102580;-47
2022/06/21 04:59:20;;;;;;;2.28;2.08;;;;;;;20.10;71.30;100215.41;5018535;28;102315;-48
2022/06/21 05:01:47;;;;;;;2.47;2.25;;;;;;;20.11;71.39;100209.53;5032991;28;102487;-47
2022/06/21 05:04:19;;;;;;;2.42;2.22;;;;;;;20.13;71.29;100211.97;5034242;28;103902;-46
2022/06/21 05:06:47;;;;;;;2.30;2.10;;;;;;;20.15;71.01;100217.91;5017428;28;102004;-46
2022/06/21 05:09:16;;;;;;;2.20;2.00;;;;;;;20.15;71.10;100207.66;5019635;28;105225;-47
2022/06/21 05:12:00;;;;;;;2.53;2.35;;;;;;;20.17;70.91;100201.81;5018152;28;102940;-47
2022/06/21 05:14:32;;;;;;;2.30;2.10;;;;;;;20.19;70.50;100196.72;5016725;28;107932;-48
2022/06/21 05:17:00;;;;;;;2.00;1.90;;;;;;;20.22;70.74;100201.56;5016828;28;102694;-48
2022/06/21 05:19:31;;;;;;;2.33;2.20;;;;;;;20.22;70.46;100204.31;5018032;28;102296;-48
2022/06/21 05:22:03;;;;;;;2.08;1.98;;;;;;;20.24;70.67;100196.50;5026704;28;102640;-47
2022/06/21 05:24:29;;;;;;;1.90;1.80;;;;;;;20.25;70.56;100189.00;5020784;28;104017;-46
2022/06/21 05:27:05;;;;;;;2.20;2.10;;;;;;;20.27;70.60;100187.53;5017808;28;102142;-47
2022/06/21 05:29:40;;;;;;;2.42;2.22;;;;;;;20.30;70.43;100186.81;5023241;28;102411;-47
2022/06/21 05:32:15;;;;;;;2.25;2.05;;;;;;;20.33;70.57;100186.09;5016917;28;102442;-47
2022/06/21 05:34:47;;;;;;;2.38;2.17;;;;;;;20.34;70.52;100187.72;5033956;28;103823;-47
2022/06/21 05:37:23;;;;;;;2.72;2.53;;;;;;;20.35;70.47;100186.56;5037156;28;101826;-46
2022/06/21 05:39:51;;;;;;;2.25;2.05;;;;;;;20.36;70.44;100190.94;5034421;28;102391;-47
2022/06/21 05:42:20;;;;;;;;;;;;;;;20.40;70.27;100202.09;5028533;28;102319;-46
2022/06/21 05:44:50;;;;;;;4.60;2.38;;;;;;;20.41;70.33;100200.94;5034166;28;103995;-46
2022/06/21 05:47:20;;;;;;;2.63;2.42;;;;;;;20.44;70.35;100197.47;5036860;28;102555;-47
2022/06/21 05:49:48;;;;;;;2.15;1.95;;;;;;;20.48;70.11;100192.03;5019936;28;102471;-47
2022/06/21 05:52:18;;;;;;;2.35;2.13;;;;;;;20.48;70.09;100181.00;5017037;28;102091;-47
2022/06/21 05:54:50;;;;;;;2.22;2.00;;;;;;;20.50;70.24;100178.72;5030950;28;104013;-47
2022/06/21 05:57:20;;;;;;;2.17;2.00;;;;;;;20.51;69.97;100180.31;5023099;28;102534;-47
2022/06/21 05:59:48;;;;;;;2.30;2.10;;;;;;;20.52;69.77;100171.69;5036054;28;102141;-47
2022/06/21 06:02:31;;;;;;;2.30;2.20;;;;;;;20.54;69.83;100174.09;5035228;28;102094;-46
2022/06/21 06:05:05;;;;;;;2.53;2.17;;;;;;;20.54;69.89;100174.09;5006900;28;103905;-46
2022/06/21 06:07:36;;;;;;;2.60;2.40;;;;;;;20.55;70.07;100175.69;5029532;28;102267;-47
2022/06/21 06:10:05;;;;;;;2.55;2.30;;;;;;;20.55;70.00;100159.09;5036103;28;102610;-48
2022/06/21 06:12:36;;;;;;;2.47;2.25;;;;;;;20.57;69.85;100156.81;5037222;28;102391;-48
2022/06/21 06:15:10;;;;;;;2.25;2.15;;;;;;;20.58;69.83;100158.41;5034453;28;103947;-47
2022/06/21 06:17:44;;;;;;;2.60;2.30;;;;;;;20.58;69.70;100152.88;5027923;28;102183;-47
2022/06/21 06:20:20;;;;;;;2.70;2.50;;;;;;;20.61;69.66;100152.19;5033130;28;102207;-47
2022/06/21 06:22:53;;;;;;;2.38;2.28;;;;;;;20.61;69.85;100152.97;5025086;28;102598;-47
2022/06/21 06:25:25;;;;;;;2.65;2.45;;;;;;;20.64;69.54;100143.97;5014992;28;103891;-47
2022/06/21 06:28:01;;;;;;;2.00;1.90;;;;;;;20.66;69.56;100137.28;5021548;28;101890;-47
2022/06/21 06:30:36;;;;;;;2.10;1.90;;;;;;;20.68;69.31;100135.78;5015336;28;102237;-47
2022/06/21 06:33:14;;;;;;;2.35;1.92;;;;;;;20.70;69.33;100127.13;5024735;28;102155;-47
2022/06/21 06:35:43;;;;;;;2.05;1.95;;;;;;;20.71;68.98;100112.97;5027555;28;103901;-46
2022/06/21 06:38:13;;;;;;;2.22;2.03;;;;;;;20.73;69.14;100121.69;5027442;28;102088;-47
2022/06/21 06:40:44;;;;;;;4.22;2.30;;;;;;;20.73;69.15;100110.63;5033720;28;101938;-47
2022/06/21 06:43:19;;;;;;;2.20;2.00;;;;;;;20.74;68.93;100105.94;5032855;28;103637;-49
2022/06/21 06:45:48;;;;;;;2.25;2.15;;;;;;;20.73;68.97;100099.56;5029108;28;104121;-47
2022/06/21 06:48:22;;;;;;;2.38;2.28;;;;;;;20.75;69.13;100096.47;5035547;28;102148;-47
2022/06/21 06:50:54;;;;;;;2.00;1.90;;;;;;;20.76;68.82;100087.81;5035041;28;102024;-47
2022/06/21 06:53:27;;;;;;;3.05;2.00;;;;;;;20.77;68.62;100083.91;5031945;28;102354;-47
2022/06/21 06:55:58;;;;;;;2.55;2.35;;;;;;;20.78;68.73;100081.94;5030027;28;108653;-46
2022/06/21 06:58:30;;;;;;;2.22;2.10;;;;;;;20.78;68.83;100079.97;5015098;28;102591;-47
2022/06/21 07:01:04;;;;;;;2.40;2.30;;;;;;;20.79;68.81;100076.03;5013213;28;102114;-46
2022/06/21 07:03:34;;;;;;;2.10;2.00;;;;;;;20.79;68.77;100089.88;5021908;28;102616;-49
2022/06/21 07:06:05;;;;;;;3.30;2.33;;;;;;;20.80;68.79;100088.69;5025841;28;103961;-47
2022/06/21 07:08:37;;;;;;;2.40;2.30;;;;;;;20.79;68.83;100087.09;5015628;28;102355;-46
2022/06/21 07:11:13;;;;;;;3.95;2.10;;;;;;;20.80;68.97;100077.63;5019318;28;102386;-47
2022/06/21 07:13:42;;;;;;;2.45;2.28;;;;;;;20.79;68.99;100081.56;5015720;28;102098;-46
2022/06/21 07:16:14;;;;;;;;;;;;;;;20.79;69.02;100075.25;5022582;28;103980;-47
2022/06/21 07:18:46;;;;;;;2.30;2.20;;;;;;;20.78;69.06;100066.16;5018976;28;102292;-47
2022/06/21 07:21:14;;;;;;;3.13;2.22;;;;;;;20.79;69.34;100067.75;5017052;28;102457;-48
2022/06/21 07:23:42;;;;;;;2.55;2.30;;;;;;;20.79;68.84;100064.97;5022162;28;102998;-47
2022/06/21 07:26:15;;;;;;;2.83;2.63;;;;;;;20.80;69.07;100072.09;5028530;28;103919;-47
2022/06/21 07:28:47;;;;;;;2.35;2.15;;;;;;;20.79;69.00;100059.44;5021988;28;102984;-48
2022/06/21 07:31:19;;;;;;;2.33;2.13;;;;;;;20.80;68.94;100055.50;5015534;28;102154;-47
2022/06/21 07:33:49;;;;;;;2.00;1.90;;;;;;;20.81;68.86;100057.13;5017479;28;102306;-47
2022/06/21 07:36:21;;;;;;;2.33;2.05;;;;;;;20.83;68.76;100049.28;5015304;28;104124;-47
2022/06/21 07:38:51;;;;;;;2.53;2.33;;;;;;;20.81;68.98;100051.59;5017528;28;105404;-47
2022/06/21 07:41:23;;;;;;;2.45;2.25;;;;;;;20.81;69.00;100057.13;5036282;28;102238;-47
2022/06/21 07:43:54;;;;;;;2.60;2.40;;;;;;;20.80;68.86;100055.50;5035352;28;102615;-48
2022/06/21 07:51:45;;;;;;;4.00;2.25;;;;;;;20.81;68.72;100067.41;4993440;28;102417;-48
2022/06/21 07:54:17;;;;;;;2.72;2.25;;;;;;;20.80;68.73;100061.03;4977468;28;102274;-47
2022/06/21 07:56:49;;;;;;;2.80;2.47;;;;;;;20.80;68.91;100061.03;4998469;28;104159;-48
2022/06/21 07:59:21;;;;;;;2.42;2.25;;;;;;;20.80;68.92;100061.03;4998742;28;102050;-48
2022/06/21 08:07:34;;;;;;;2.83;2.60;;;;;;;20.80;68.74;100044.44;4997348;28;103882;-47
2022/06/21 08:10:06;;;;;;;3.88;2.50;;;;;;;20.81;68.92;100051.59;5013122;28;102365;-48
2022/06/21 08:12:32;;;;;;;4.60;2.80;;;;;;;20.81;68.80;100051.59;5019396;28;101881;-47
2022/06/21 08:15:00;;;;;;;4.07;2.75;;;;;;;20.80;68.91;100044.44;5020594;28;102738;-48
2022/06/21 08:17:34;;;;;;;2.50;2.30;;;;;;;20.80;68.80;100044.44;5018084;28;103880;-47
2022/06/21 08:20:06;;;;;;;3.35;2.20;;;;;;;20.80;68.68;100038.91;5017339;28;102178;-46
2022/06/21 08:22:40;;;;;;;2.92;2.63;;;;;;;20.80;68.80;100041.69;5009174;28;105261;-47
2022/06/21 08:25:22;;;;;;;2.70;2.50;;;;;;;20.81;68.78;100040.53;5017674;28;102422;-47
2022/06/21 08:27:54;;;;;;;2.40;2.20;;;;;;;20.81;68.68;100040.53;5014804;28;108052;-47
2022/06/21 08:30:27;;;;;;;2.60;2.42;;;;;;;20.80;68.59;100027.84;5016447;28;102508;-47
2022/06/21 08:32:57;;;;;;;2.50;2.30;;;;;;;20.81;68.83;100026.72;5017043;28;101963;-47
2022/06/21 08:35:28;;;;;;;3.47;2.50;;;;;;;20.83;68.68;100031.88;5017697;28;102642;-48
2022/06/21 08:38:06;;;;;;;2.75;2.55;;;;;;;20.82;68.85;100030.28;5016659;28;103826;-46
2022/06/21 08:40:52;;;;;;;2.60;2.35;;;;;;;20.81;68.73;100029.47;5015628;28;102406;-47
2022/06/21 08:44:00;;;;;;;3.35;2.42;;;;;;;20.82;68.76;100031.09;5017282;28;101957;-46
2022/06/21 08:46:59;;;;;;;2.50;2.40;;;;;;;20.81;68.57;100023.94;5010887;28;104905;-47
2022/06/21 08:50:03;;;;;;;2.20;2.00;;;;;;;20.80;68.82;100021.53;4990952;28;108888;-48
2022/06/21 08:52:56;;;;;;;2.92;2.63;;;;;;;20.81;68.77;100023.16;4993667;28;102687;-47
2022/06/21 08:55:35;;;;;;;2.20;2.10;;;;;;;20.81;68.69;100023.16;4995516;28;102192;-47
2022/06/21 08:58:17;;;;;;;2.45;2.35;;;;;;;20.80;68.71;100014.03;4996508;28;102212;-47
2022/06/21 09:00:51;;;;;;;3.13;2.35;;;;;;;20.79;68.70;100006.91;4994557;28;103981;-47
2022/06/21 09:03:34;;;;;;;2.25;2.15;;;;;;;20.79;68.53;100009.66;4997000;28;102708;-47
2022/06/21 09:06:16;;;;;;;2.50;2.30;;;;;;;20.80;68.68;99999.41;4994275;28;102383;-47
2022/06/21 09:08:59;;;;;;;2.63;2.42;;;;;;;20.81;68.65;100012.88;4993770;28;102558;-46
2022/06/21 09:11:36;;;;;;;2.53;2.25;;;;;;;20.83;68.66;100004.22;4992899;28;108051;-47
2022/06/21 09:14:22;;;;;;;2.53;2.33;;;;;;;20.81;68.60;100012.88;4994928;28;102062;-47
2022/06/21 09:16:58;;;;;;;2.72;2.42;;;;;;;20.79;68.62;100009.66;4995853;28;102475;-47
2022/06/21 09:19:39;;;;;;;2.25;2.15;;;;;;;20.79;68.75;100020.72;4996718;28;102116;-47
2022/06/21 09:22:14;;;;;;;2.45;2.25;;;;;;;20.78;68.53;100005.31;4995402;28;103951;-46
2022/06/21 09:24:51;;;;;;;2.60;2.40;;;;;;;20.79;68.74;100008.88;4994722;28;102778;-47
2022/06/21 09:27:25;;;;;;;2.80;2.60;;;;;;;20.78;68.59;100010.84;4994754;28;102891;-47
2022/06/21 09:30:04;;;;;;;2.78;2.40;;;;;;;20.79;68.70;100014.41;4993657;28;102846;-47
2022/06/21 09:32:40;;;;;;;2.83;2.10;;;;;;;20.78;68.71;100002.53;4995361;28;103654;-47
2022/06/21 09:35:20;;;;;;;2.47;2.30;;;;;;;20.78;68.56;100007.28;4992187;28;102197;-46
2022/06/21 09:37:58;;;;;;;2.67;2.42;;;;;;;20.78;68.74;99994.25;4993662;28;102049;-47
2022/06/21 09:40:30;;;;;;;3.40;2.65;;;;;;;20.76;68.58;99991.03;4997289;28;102306;-46
2022/06/21 09:43:11;;;;;;;2.70;2.50;;;;;;;20.75;68.64;99997.72;4995127;28;104066;-48
2022/06/21 09:45:49;;;;;;;2.78;2.58;;;;;;;20.75;68.76;99992.19;4997362;28;102431;-47
2022/06/21 09:48:24;;;;;;;2.35;2.25;;;;;;;20.75;68.75;99981.13;4994950;28;102612;-48
2022/06/21 09:51:00;;;;;;;3.63;2.55;;;;;;;20.76;68.82;99982.72;4997759;28;102219;-47
2022/06/21 09:53:46;;;;;;;3.38;2.70;;;;;;;20.75;68.78;99983.91;4992786;28;103904;-46
2022/06/21 09:56:23;;;;;;;4.85;2.53;;;;;;;20.73;68.70;99977.09;4997304;28;102500;-48
2022/06/21 09:59:03;;;;;;;2.50;2.30;;;;;;;20.75;68.75;99986.66;4995942;28;101944;-46
2022/06/21 10:01:38;;;;;;;2.60;2.40;;;;;;;20.73;68.59;99977.91;4997087;28;102424;-47
2022/06/21 10:04:17;;;;;;;2.67;2.28;;;;;;;20.73;68.67;99960.53;4994132;28;103916;-47
2022/06/21 10:06:56;;;;;;;2.60;2.40;;;;;;;20.72;68.73;99962.47;4993659;28;102418;-48
2022/06/21 10:09:36;;;;;;;2.80;2.60;;;;;;;20.74;68.70;99957.41;4995668;28;102315;-47
2022/06/21 10:12:19;;;;;;;2.88;2.67;;;;;;;20.74;68.75;99968.47;4997483;28;102252;-46
2022/06/21 10:15:21;;;;;;;2.60;2.40;;;;;;;20.71;68.62;99955.38;4992204;28;104072;-48
2022/06/21 10:18:18;;;;;;;2.80;2.60;;;;;;;20.70;68.86;99956.53;4975502;28;102276;-46
2022/06/21 10:21:13;;;;;;;2.67;2.47;;;;;;;20.70;68.73;99948.22;4976880;28;102288;-47
2022/06/21 10:23:56;;;;;;;2.47;2.28;;;;;;;20.70;68.82;99944.63;4994508;28;102584;-47
2022/06/21 10:26:45;;;;;;;2.63;2.42;;;;;;;20.70;68.82;99939.94;4980182;28;107787;-47
2022/06/21 10:29:47;;;;;;;3.72;2.70;;;;;;;20.70;68.62;99947.41;4995480;28;101992;-47
2022/06/21 10:32:30;;;;;;;3.67;2.72;;;;;;;20.70;68.89;99959.28;4995605;28;102326;-48
2022/06/21 10:35:16;;;;;;;2.58;2.38;;;;;;;20.67;68.80;99943.41;4994947;28;102066;-47
2022/06/21 10:38:04;;;;;;;2.83;2.63;;;;;;;20.67;68.82;99943.41;4982520;28;104093;-49
2022/06/21 10:40:52;;;;;;;;;;;;;;;20.67;68.98;99943.41;4995037;28;102122;-47
2022/06/21 10:43:44;;;;;;;3.42;2.17;;;;;;;20.67;68.78;99940.66;4994310;28;102122;-46
2022/06/21 10:46:14;;;;;;;3.15;2.70;;;;;;;20.67;68.95;99935.13;4995726;28;102481;-47
2022/06/21 10:49:14;;;;;;;2.78;2.58;;;;;;;20.67;69.01;99929.59;4994438;28;104012;-46
2022/06/21 10:52:00;;;;;;;2.97;2.75;;;;;;;20.66;68.83;99927.97;4993536;28;101949;-46
2022/06/21 10:54:50;;;;;;;2.92;2.72;;;;;;;20.66;68.82;99922.44;4994375;28;102319;-47
2022/06/21 10:57:28;;;;;;;5.07;2.63;;;;;;;20.63;68.95;99915.69;4976838;28;102584;-47
2022/06/21 11:03:39;;;;;;;2.78;2.58;;;;;;;20.64;68.76;99888.84;4992805;28;102125;-47
2022/06/21 11:06:21;;;;;;;3.95;2.88;;;;;;;20.66;69.13;99916.91;4952614;28;101992;-46
2022/06/21 11:08:56;;;;;;;2.63;2.42;;;;;;;20.65;68.83;99915.31;4989745;28;102175;-48
2022/06/21 11:11:30;;;;;;;3.00;2.80;;;;;;;20.64;69.04;99897.94;4994925;28;103602;-46
2022/06/21 11:14:04;;;;;;;2.90;2.70;;;;;;;20.63;69.00;99903.84;4990348;28;102415;-46
2022/06/21 11:16:47;;;;;;;3.03;2.83;;;;;;;20.63;69.11;99901.06;4989243;28;102779;-46
2022/06/21 11:19:19;;;;;;;2.72;2.53;;;;;;;20.62;69.28;99894.72;4994596;28;102159;-46
2022/06/21 11:22:05;;;;;;;3.03;2.83;;;;;;;20.60;69.07;99885.19;4992013;28;107941;-47
2022/06/21 11:24:43;;;;;;;3.25;2.90;;;;;;;20.61;69.03;99879.28;4989254;28;102719;-47
2022/06/21 11:27:16;;;;;;;2.95;2.75;;;;;;;20.61;69.26;99882.06;4989868;28;102378;-46
2022/06/21 11:29:51;;;;;;;2.80;2.60;;;;;;;20.61;69.16;99868.22;4993073;28;102112;-47
2022/06/21 11:32:26;;;;;;;2.85;2.65;;;;;;;20.60;69.29;99871.38;4993223;28;104154;-46
2022/06/21 11:35:05;;;;;;;3.20;2.90;;;;;;;20.61;69.00;99870.19;4995302;28;102382;-47
2022/06/21 11:37:54;;;;;;;2.90;2.60;;;;;;;20.62;69.01;99866.25;4995196;28;102504;-47
2022/06/21 11:40:41;;;;;;;3.03;2.83;;;;;;;20.60;69.20;99868.59;4991139;28;102020;-47
2022/06/21 11:43:35;;;;;;;3.33;3.10;;;;;;;20.59;69.15;99861.44;4991701;28;104014;-47
2022/06/21 11:46:14;;;;;;;3.22;2.92;;;;;;;20.62;69.17;99849.69;4993482;28;102387;-47
2022/06/21 11:49:07;;;;;;;2.88;2.67;;;;;;;20.60;69.40;99854.78;4986860;28;102554;-46
2022/06/21 11:51:59;;;;;;;3.10;2.90;;;;;;;20.61;69.08;99856.38;4992999;28;102585;-46
2022/06/21 11:54:34;;;;;;;3.05;2.83;;;;;;;20.61;69.25;99853.63;4994304;28;103880;-46
2022/06/21 11:57:14;;;;;;;2.95;2.75;;;;;;;20.62;69.05;99855.22;4992914;28;102544;-46
2022/06/21 11:59:51;;;;;;;2.85;2.65;;;;;;;20.61;69.17;99848.09;4994414;28;101960;-46
2022/06/21 12:02:24;;;;;;;3.15;2.95;;;;;;;20.60;69.25;99852.03;4995739;28;102235;-46
2022/06/21 12:04:59;;;;;;;3.15;2.85;;;;;;;20.63;69.18;99846.56;4994257;28;103997;-46
2022/06/21 12:07:46;;;;;;;3.22;2.92;;;;;;;20.65;69.25;99848.97;4993709;28;102190;-46
2022/06/21 12:10:19;;;;;;;2.78;2.58;;;;;;;20.64;69.31;99853.69;4993196;28;102443;-46